createdAt,value
2022-09-07T00:00:22.611Z,99946.50
2022-09-07T00:05:24.393Z,99947.81
2022-09-07T00:10:26.518Z,99942.44
2022-09-07T00:15:28.436Z,99939.78
2022-09-07T00:20:30.114Z,99940.56
2022-09-07T00:25:32.140Z,99941.44
2022-09-07T00:30:34.933Z,99936.38
2022-09-07T00:35:40.846Z,99930.44
2022-09-07T00:40:42.810Z,99929.53
2022-09-07T00:45:44.508Z,99929.63
2022-09-07T00:51:02.793Z,99928.88
2022-09-07T00:56:06.339Z,99919.16
2022-09-07T01:01:08.552Z,99920.81
2022-09-07T01:06:23.668Z,99912.50
2022-09-07T01:11:26.339Z,99912.63
2022-09-07T01:17:05.949Z,99907.50
2022-09-07T01:22:25.592Z,99913.44
2022-09-07T01:28:08.683Z,99904.06
2022-09-07T01:33:28.079Z,99891.34
2022-09-07T01:38:46.339Z,99897.88
2022-09-07T01:44:09.453Z,99905.53
2022-09-07T01:49:29.719Z,99902.84
2022-09-07T01:54:48.225Z,99896.84
2022-09-07T02:00:09.932Z,99897.69
2022-09-07T02:05:22.306Z,99899.31
2022-09-07T02:10:37.076Z,99902.63
2022-09-07T02:15:47.090Z,99893.31
2022-09-07T02:20:57.153Z,99902.69
2022-09-07T02:26:15.340Z,99900.19
2022-09-07T02:31:17.262Z,99894.22
2022-09-07T02:36:24.361Z,99896.91
2022-09-07T02:41:32.766Z,99904.56
2022-09-07T02:46:46.560Z,99891.31
2022-09-07T02:52:18.865Z,99899.81
2022-09-07T02:58:05.756Z,99894.69
2022-09-07T03:03:24.865Z,99883.72
2022-09-07T03:08:31.520Z,99895.63
2022-09-07T03:13:33.956Z,99883.09
2022-09-07T03:18:35.672Z,99873.69
2022-09-07T03:23:40.490Z,99883.84
2022-09-07T03:28:42.265Z,99882.88
2022-09-07T03:33:43.972Z,99878.56
2022-09-07T03:38:45.776Z,99888.66
2022-09-07T03:43:48.316Z,99879.34
2022-09-07T03:48:50.530Z,99883.59
2022-09-07T03:53:52.573Z,99877.66
2022-09-07T03:58:55.299Z,99885.31
2022-09-07T04:04:02.117Z,99880.25
2022-09-07T04:09:06.347Z,99881.09
2022-09-07T04:14:09.341Z,99892.94
2022-09-07T04:19:11.439Z,99892.13
2022-09-07T04:24:15.033Z,99908.22
2022-09-07T04:29:16.720Z,99906.53
2022-09-07T04:34:18.540Z,99909.06
2022-09-07T04:39:20.229Z,99912.50
2022-09-07T04:44:22.164Z,99908.22
2022-09-07T04:49:23.849Z,99909.06
2022-09-07T04:54:26.601Z,99902.31
2022-09-07T04:59:28.463Z,99912.44
2022-09-07T05:04:30.360Z,99912.38
2022-09-07T05:09:32.056Z,99918.28
2022-09-07T05:14:34.293Z,99915.53
2022-09-07T05:19:35.991Z,99936.34
2022-09-07T05:24:37.713Z,99940.34
2022-09-07T05:35:01.346Z,99948.25
2022-09-07T05:40:03.573Z,99944.56
2022-09-07T05:45:06.116Z,99950.16
2022-09-07T05:50:09.172Z,99954.13
2022-09-07T05:55:28.729Z,99947.88
2022-09-07T06:00:31.755Z,99945.97
2022-09-07T06:05:33.629Z,99943.91
2022-09-07T06:10:44.933Z,99958.94
2022-09-07T06:15:46.858Z,99956.06
2022-09-07T06:20:48.545Z,99961.63
2022-09-07T06:25:50.321Z,99956.19
2022-09-07T06:30:52.058Z,99956.50
2022-09-07T06:36:10.825Z,99949.59
2022-09-07T06:52:04.687Z,99974.22
2022-09-07T06:57:09.265Z,99962.91
2022-09-07T07:02:14.732Z,99952.94
2022-09-07T07:07:16.479Z,99958.94
2022-09-07T07:17:18.934Z,99955.09
2022-09-07T07:27:42.865Z,99955.94
2022-09-07T07:32:45.909Z,99957.28
2022-09-07T07:37:48.448Z,99954.09
2022-09-07T07:42:50.420Z,99950.41
2022-09-07T07:47:52.262Z,99952.56
2022-09-07T07:58:16.763Z,99959.06
2022-09-07T08:03:18.808Z,99958.34
2022-09-07T08:08:20.941Z,99961.94
2022-09-07T08:13:22.604Z,99964.91
2022-09-07T08:18:24.273Z,99964.00
2022-09-07T08:23:25.945Z,99963.78
2022-09-07T08:28:30.014Z,99954.41
2022-09-07T08:33:31.931Z,99942.16
2022-09-07T08:38:35.348Z,99942.78
2022-09-07T08:43:58.821Z,99941.00
2022-09-07T08:49:03.180Z,99938.59
2022-09-07T08:54:05.827Z,99935.41
2022-09-07T08:59:30.438Z,99922.94
2022-09-07T09:05:16.373Z,99927.63
2022-09-07T09:10:29.125Z,99937.53
2022-09-07T09:15:35.104Z,99924.03
2022-09-07T09:20:43.237Z,99922.16
2022-09-07T09:25:53.629Z,99917.34
2022-09-07T09:30:55.304Z,99906.88
2022-09-07T09:36:00.349Z,99919.25
2022-09-07T09:41:10.332Z,99912.84
2022-09-07T09:46:20.808Z,99905.63
2022-09-07T09:56:49.017Z,99886.56
2022-09-07T10:07:25.861Z,99865.38
2022-09-07T10:12:33.245Z,99862.19
2022-09-07T10:17:47.696Z,99861.63
2022-09-07T10:22:51.981Z,99860.69
2022-09-07T10:28:17.743Z,99853.03
2022-09-07T10:39:20.388Z,99838.41
2022-09-07T10:44:31.822Z,99829.69
2022-09-07T10:49:38.491Z,99829.22
2022-09-07T10:54:56.294Z,99828.94
2022-09-07T11:00:15.653Z,99850.94
2022-09-07T11:05:31.133Z,99833.94
2022-09-07T11:10:50.815Z,99824.31
2022-09-07T11:16:00.616Z,99825.69
2022-09-07T11:21:05.972Z,99822.00
2022-09-07T11:26:23.372Z,99808.53
2022-09-07T11:31:32.104Z,99803.44
2022-09-07T11:36:46.154Z,99792.03
2022-09-07T11:42:42.627Z,99783.84
2022-09-07T11:47:33.913Z,99778.50
2022-09-07T11:52:40.749Z,99765.19
2022-09-07T11:58:06.629Z,99767.38
2022-09-07T12:03:22.646Z,99763.53
2022-09-07T12:08:36.709Z,99759.13
2022-09-07T12:14:02.305Z,99755.19
2022-09-07T12:19:17.809Z,99748.94
2022-09-07T12:24:39.239Z,99745.72
2022-09-07T12:29:45.142Z,99726.88
2022-09-07T12:34:52.521Z,99744.63
2022-09-07T12:40:39.082Z,99730.97
2022-09-07T12:45:40.654Z,99720.63
2022-09-07T12:51:03.877Z,99717.81
2022-09-07T12:56:16.209Z,99716.75
2022-09-07T13:01:45.543Z,99713.81
2022-09-07T13:07:06.668Z,99722.63
2022-09-07T13:17:56.582Z,99722.63
2022-09-07T13:23:24.845Z,99717.88
2022-09-07T13:28:51.292Z,99703.28
2022-09-07T13:33:54.508Z,99705.66
2022-09-07T13:38:56.849Z,99700.91
2022-09-07T13:44:01.076Z,99692.00
2022-09-07T13:49:35.392Z,99688.88
2022-09-07T13:55:01.605Z,99689.28
2022-09-07T14:00:04.396Z,99682.47
2022-09-07T14:05:08.412Z,99683.84
2022-09-07T14:10:12.709Z,99690.53
2022-09-07T14:15:17.350Z,99695.69
2022-09-07T14:20:19.069Z,99683.22
2022-09-07T14:25:22.804Z,99696.53
2022-09-07T14:30:28.673Z,99690.84
2022-09-07T14:35:36.968Z,99687.50
2022-09-07T14:40:38.900Z,99681.56
2022-09-07T14:45:40.561Z,99672.31
2022-09-07T14:51:00.891Z,99682.63
2022-09-07T14:56:10.993Z,99687.00
2022-09-07T15:12:17.645Z,99699.47
2022-09-07T15:22:46.862Z,99711.16
2022-09-07T15:27:48.677Z,99699.38
2022-09-07T15:32:50.373Z,99701.41
2022-09-07T15:38:59.464Z,99689.31
2022-09-07T15:43:20.422Z,99687.75
2022-09-07T15:48:27.578Z,99691.66
2022-09-07T15:58:55.935Z,99658.97
2022-09-07T16:03:58.684Z,99650.84
2022-09-07T16:09:01.345Z,99665.72
2022-09-07T16:14:04.043Z,99666.09
2022-09-07T16:19:07.381Z,99656.94
2022-09-07T16:24:09.377Z,99652.25
2022-09-07T16:29:11.013Z,99640.72
2022-09-07T16:34:14.120Z,99636.94
2022-09-07T16:39:15.981Z,99603.22
2022-09-07T16:44:17.609Z,99582.09
2022-09-07T16:49:19.687Z,99581.44
2022-09-07T16:54:21.399Z,99563.91
2022-09-07T16:59:26.703Z,99572.28
2022-09-07T17:04:29.204Z,99586.88
2022-09-07T17:09:30.982Z,99607.69
2022-09-07T17:14:32.605Z,99609.69
2022-09-07T17:19:34.667Z,99598.78
2022-09-07T17:24:36.361Z,99603.72
2022-09-07T17:29:37.990Z,99620.59
2022-09-07T17:34:39.724Z,99646.72
2022-09-07T17:39:41.450Z,99649.63
2022-09-07T17:44:43.208Z,99650.13
2022-09-07T17:49:45.284Z,99655.78
2022-09-07T17:54:47.249Z,99656.66
2022-09-07T18:05:11.482Z,99661.47
2022-09-07T18:10:13.238Z,99659.56
2022-09-07T18:15:14.970Z,99652.44
2022-09-07T18:20:16.578Z,99666.50
2022-09-07T18:25:18.416Z,99666.13
2022-09-07T18:30:20.276Z,99663.19
2022-09-07T18:35:22.992Z,99655.25
2022-09-07T18:40:24.845Z,99660.91
2022-09-07T18:45:28.117Z,99671.91
2022-09-07T18:50:30.189Z,99667.47
2022-09-07T18:55:32.840Z,99665.50
2022-09-07T19:00:34.688Z,99656.03
2022-09-07T19:05:52.915Z,99653.13
2022-09-07T19:10:54.755Z,99657.69
2022-09-07T19:16:13.914Z,99649.16
2022-09-07T19:21:19.432Z,99647.69
2022-09-07T19:26:21.044Z,99647.47
2022-09-07T19:31:24.582Z,99654.69
2022-09-07T19:36:28.092Z,99652.50
2022-09-07T19:41:30.168Z,99655.34
2022-09-07T19:46:31.730Z,99647.13
2022-09-07T19:51:36.702Z,99634.69
2022-09-07T19:56:40.104Z,99645.06
2022-09-07T20:01:46.065Z,99641.88
2022-09-07T20:06:50.463Z,99644.50
2022-09-07T20:11:52.132Z,99630.28
2022-09-07T20:16:53.714Z,99627.88
2022-09-07T20:21:56.106Z,99624.34
2022-09-07T20:26:57.957Z,99620.94
2022-09-07T20:32:00.889Z,99624.66
2022-09-07T20:37:03.176Z,99626.03
2022-09-07T20:42:05.408Z,99621.66
2022-09-07T20:47:07.282Z,99618.44
2022-09-07T20:52:09.150Z,99623.91
2022-09-07T20:57:10.931Z,99621.19
2022-09-07T21:02:12.600Z,99615.94
2022-09-07T21:07:14.238Z,99611.09
2022-09-07T21:12:16.191Z,99616.84
2022-09-07T21:17:17.969Z,99614.59
2022-09-07T21:22:19.793Z,99613.97
2022-09-07T21:27:21.462Z,99617.66
2022-09-07T21:32:23.035Z,99606.94
2022-09-07T21:37:24.889Z,99612.97
2022-09-07T21:42:26.632Z,99614.53
2022-09-07T21:47:28.437Z,99609.94
2022-09-07T21:52:30.255Z,99592.84
2022-09-07T21:57:32.049Z,99584.78
2022-09-07T22:02:33.704Z,99588.25
2022-09-07T22:07:35.280Z,99574.72
2022-09-07T22:12:37.057Z,99570.50
2022-09-07T22:17:41.328Z,99568.94
2022-09-07T22:22:46.551Z,99561.53
2022-09-07T22:27:48.300Z,99570.97
2022-09-07T22:32:51.436Z,99561.75
2022-09-07T22:37:53.073Z,99556.84
2022-09-07T22:42:54.739Z,99553.53
2022-09-07T22:47:57.194Z,99556.22
2022-09-07T22:52:59.021Z,99544.34
2022-09-07T22:58:00.626Z,99528.28
2022-09-07T23:03:03.961Z,99531.72
2022-09-07T23:08:05.775Z,99521.81
2022-09-07T23:13:09.047Z,99517.78
2022-09-07T23:18:19.557Z,99516.00
2022-09-07T23:23:21.341Z,99509.94
2022-09-07T23:28:22.900Z,99491.22
2022-09-07T23:33:26.232Z,99482.34
2022-09-07T23:38:28.583Z,99474.47
2022-09-07T23:43:31.401Z,99474.25
2022-09-07T23:48:33.237Z,99470.34
2022-09-07T23:53:35.126Z,99463.72
2022-09-07T23:58:36.842Z,99459.28
